Time;durP1;ratioP1;P1;durP2;ratioP2;P2;SDS_P1;SDS_P2;PMS_P1;PMS_P2;Temp;Humidity;BMP_temperature;BMP_pressure;BME280_temperature;BME280_humidity;BME280_pressure;Samples;Min_cycle;Max_cycle;Signal;HPM_P1;HPM_P2
2022/04/06 00:01:16;;;;;;;28.35;15.57;;;;;;;;;;5079180;28;20136;-61
2022/04/06 00:03:43;;;;;;;29.58;14.40;;;;;;;;;;5081936;28;20069;-61
2022/04/06 00:06:09;;;;;;;31.00;16.13;;;;;;;;;;5082667;28;20036;-60
2022/04/06 00:08:35;;;;;;;31.88;16.25;;;;;;;;;;5089463;28;20040;-60
2022/04/06 00:11:02;;;;;;;28.85;14.90;;;;;;;;;;5084696;28;20096;-60
2022/04/06 00:13:29;;;;;;;36.85;16.40;;;;;;;;;;5090520;28;20103;-61
2022/04/06 00:15:55;;;;;;;31.65;14.07;;;;;;;;;;5087299;28;20619;-61
2022/04/06 00:18:21;;;;;;;35.78;16.55;;;;;;;;;;5084122;28;20131;-60
2022/04/06 00:20:47;;;;;;;38.47;15.95;;;;;;;;;;5089801;28;20409;-61
2022/04/06 00:23:14;;;;;;;32.63;16.25;;;;;;;;;;5085846;28;20063;-60
2022/04/06 00:25:40;;;;;;;34.95;15.07;;;;;;;;;;5089305;28;20043;-61
2022/04/06 00:28:06;;;;;;;32.22;16.67;;;;;;;;;;5088131;28;20119;-60
2022/04/06 00:30:32;;;;;;;33.58;14.90;;;;;;;;;;5065579;28;20129;-60
2022/04/06 00:32:58;;;;;;;32.35;16.35;;;;;;;;;;5086095;28;20040;-61
2022/04/06 00:35:32;;;;;;;28.40;14.48;;;;;;;;;;5088623;28;20127;-61
2022/04/06 00:38:03;;;;;;;29.35;15.65;;;;;;;;;;5070058;28;20127;-61
2022/04/06 00:40:29;;;;;;;33.03;15.55;;;;;;;;;;5064944;28;20052;-61
2022/04/06 00:42:55;;;;;;;38.30;15.07;;;;;;;;;;5083837;28;20043;-61
2022/04/06 00:45:22;;;;;;;34.50;15.55;;;;;;;;;;5081232;28;20067;-61
2022/04/06 00:47:48;;;;;;;35.70;15.77;;;;;;;;;;5078032;28;20044;-61
2022/04/06 00:50:14;;;;;;;38.30;15.68;;;;;;;;;;5090478;28;20490;-61
2022/04/06 00:52:40;;;;;;;33.90;14.57;;;;;;;;;;5085563;28;20028;-62
2022/04/06 00:55:07;;;;;;;34.53;14.43;;;;;;;;;;5086580;28;20513;-61
2022/04/06 00:57:33;;;;;;;35.35;13.90;;;;;;;;;;5085515;28;20045;-61
2022/04/06 00:59:59;;;;;;;28.10;13.98;;;;;;;;;;5079285;28;20178;-61
2022/04/06 01:02:25;;;;;;;31.42;13.90;;;;;;;;;;5070975;28;20040;-61
2022/04/06 01:04:51;;;;;;;33.17;13.57;;;;;;;;;;5069598;28;20051;-62
2022/04/06 01:07:22;;;;;;;30.48;12.93;;;;;;;;;;5077602;28;20115;-61
2022/04/06 01:09:48;;;;;;;30.40;12.77;;;;;;;;;;5089656;28;20040;-61
2022/04/06 01:12:15;;;;;;;27.38;13.18;;;;;;;;;;5053517;28;20101;-61
2022/04/06 01:14:41;;;;;;;32.03;14.25;;;;;;;;;;5085419;28;20128;-61
2022/04/06 01:17:08;;;;;;;29.85;13.35;;;;;;;;;;5069782;28;20055;-61
2022/04/06 01:19:35;;;;;;;28.42;12.65;;;;;;;;;;5085800;28;20043;-61
2022/04/06 01:22:01;;;;;;;25.75;10.68;;;;;;;;;;5084184;28;20085;-61
2022/04/06 01:24:27;;;;;;;25.52;12.10;;;;;;;;;;5080736;28;20035;-61
2022/04/06 01:26:54;;;;;;;28.08;11.85;;;;;;;;;;5084722;28;20498;-61
2022/04/06 01:29:20;;;;;;;28.70;11.75;;;;;;;;;;5085661;28;20052;-61
2022/04/06 01:31:46;;;;;;;30.70;12.50;;;;;;;;;;5079574;28;20036;-61
2022/04/06 01:34:12;;;;;;;29.80;12.23;;;;;;;;;;5084598;28;20494;-61
2022/04/06 01:36:38;;;;;;;27.45;11.15;;;;;;;;;;5083454;28;20028;-61
2022/04/06 01:39:04;;;;;;;29.65;12.05;;;;;;;;;;5082891;28;20119;-60
2022/04/06 01:41:31;;;;;;;26.63;11.85;;;;;;;;;;5084657;28;20348;-61
2022/04/06 01:43:57;;;;;;;24.52;11.52;;;;;;;;;;5085267;28;20039;-61
2022/04/06 01:46:23;;;;;;;30.77;11.70;;;;;;;;;;5080330;28;20032;-61
2022/04/06 01:54:18;;;;;;;25.05;10.60;;;;;;;;;;5080142;28;20112;-61
2022/04/06 01:56:44;;;;;;;22.13;10.35;;;;;;;;;;5063602;28;20047;-61
2022/04/06 01:59:10;;;;;;;25.40;10.82;;;;;;;;;;5081815;28;20535;-61
2022/04/06 02:01:37;;;;;;;24.63;10.23;;;;;;;;;;5081648;28;20040;-61
2022/04/06 02:04:06;;;;;;;31.33;9.85;;;;;;;;;;5082640;28;20040;-61
2022/04/06 02:06:32;;;;;;;29.35;10.27;;;;;;;;;;5083984;28;20502;-61
2022/04/06 02:08:58;;;;;;;23.20;9.50;;;;;;;;;;5077851;28;20032;-61
2022/04/06 02:11:24;;;;;;;25.50;9.57;;;;;;;;;;5078000;28;20127;-61
2022/04/06 02:13:51;;;;;;;28.40;9.68;;;;;;;;;;5082885;28;20040;-61
2022/04/06 02:16:17;;;;;;;24.88;9.45;;;;;;;;;;5064254;28;20533;-62
2022/04/06 02:18:43;;;;;;;22.67;8.38;;;;;;;;;;5084429;28;20508;-61
2022/04/06 02:21:09;;;;;;;24.70;9.02;;;;;;;;;;5083170;28;20518;-62
2022/04/06 02:23:35;;;;;;;22.48;8.55;;;;;;;;;;5085316;28;20032;-61
2022/04/06 02:26:01;;;;;;;24.10;9.00;;;;;;;;;;5081241;28;20032;-62
2022/04/06 02:28:27;;;;;;;24.13;8.18;;;;;;;;;;5083533;28;20509;-62
2022/04/06 02:30:53;;;;;;;21.27;8.40;;;;;;;;;;5083811;28;20093;-61
2022/04/06 02:33:19;;;;;;;18.25;7.70;;;;;;;;;;5084714;28;20047;-61
2022/04/06 02:35:45;;;;;;;18.15;7.78;;;;;;;;;;5064433;28;20051;-60
2022/04/06 02:38:11;;;;;;;22.38;7.75;;;;;;;;;;5088908;28;20043;-60
2022/04/06 02:40:37;;;;;;;21.08;7.78;;;;;;;;;;5076651;28;20512;-60
2022/04/06 02:43:03;;;;;;;22.05;8.00;;;;;;;;;;5081208;28;20032;-61
2022/04/06 02:45:29;;;;;;;24.25;8.00;;;;;;;;;;5085451;28;20036;-61
2022/04/06 02:47:55;;;;;;;22.95;7.78;;;;;;;;;;5082469;28;20024;-60
2022/04/06 02:50:21;;;;;;;25.33;8.25;;;;;;;;;;5085590;28;20044;-60
2022/04/06 02:52:47;;;;;;;20.15;7.07;;;;;;;;;;5086064;28;20044;-60
2022/04/06 02:55:13;;;;;;;21.30;7.15;;;;;;;;;;5087211;28;20126;-61
2022/04/06 02:57:41;;;;;;;22.00;6.40;;;;;;;;;;5080907;28;20055;-61
2022/04/06 03:00:08;;;;;;;21.35;7.05;;;;;;;;;;5082333;28;20502;-60
2022/04/06 03:02:34;;;;;;;25.83;7.90;;;;;;;;;;5085058;28;20063;-60
2022/04/06 03:05:00;;;;;;;22.38;7.45;;;;;;;;;;5085778;28;20490;-61
2022/04/06 03:07:26;;;;;;;23.80;8.32;;;;;;;;;;5088048;28;20122;-61
2022/04/06 03:09:52;;;;;;;17.13;7.72;;;;;;;;;;5086857;28;20046;-61
2022/04/06 03:12:18;;;;;;;26.58;8.43;;;;;;;;;;5082697;28;20047;-61
2022/04/06 03:14:44;;;;;;;25.60;8.65;;;;;;;;;;5066607;28;20462;-61
2022/04/06 03:17:10;;;;;;;26.23;8.48;;;;;;;;;;5079819;28;20107;-61
2022/04/06 03:19:36;;;;;;;22.85;9.27;;;;;;;;;;5087485;28;20047;-61
2022/04/06 03:22:02;;;;;;;23.90;9.07;;;;;;;;;;5084098;28;20341;-60
2022/04/06 03:24:29;;;;;;;25.92;9.55;;;;;;;;;;5076123;28;20051;-60
2022/04/06 03:26:54;;;;;;;28.63;9.40;;;;;;;;;;5057420;28;20044;-60
2022/04/06 03:29:20;;;;;;;29.58;10.40;;;;;;;;;;5085116;28;20063;-60
2022/04/06 03:31:48;;;;;;;20.85;9.50;;;;;;;;;;5081805;28;20035;-61
2022/04/06 03:34:14;;;;;;;26.33;10.50;;;;;;;;;;5078390;28;20043;-61
2022/04/06 03:36:40;;;;;;;25.50;10.30;;;;;;;;;;5083699;28;20114;-61
2022/04/06 03:39:06;;;;;;;29.40;11.43;;;;;;;;;;5086179;28;20036;-60
2022/04/06 03:41:31;;;;;;;28.00;11.63;;;;;;;;;;5086091;28;20371;-61
2022/04/06 03:43:57;;;;;;;24.60;10.98;;;;;;;;;;5086581;28;20040;-61
2022/04/06 03:46:23;;;;;;;30.65;10.93;;;;;;;;;;5087811;28;20037;-61
2022/04/06 03:48:49;;;;;;;28.60;11.30;;;;;;;;;;5052140;28;20048;-61
2022/04/06 03:51:15;;;;;;;31.45;10.93;;;;;;;;;;5087651;28;20048;-61
2022/04/06 03:53:41;;;;;;;32.72;11.35;;;;;;;;;;5081477;28;20417;-61
2022/04/06 03:56:07;;;;;;;28.60;11.60;;;;;;;;;;5085241;28;20067;-61
2022/04/06 03:58:33;;;;;;;31.67;11.60;;;;;;;;;;5090284;28;20036;-61
2022/04/06 04:00:59;;;;;;;30.67;12.32;;;;;;;;;;5087732;28;20092;-61
2022/04/06 04:03:25;;;;;;;29.17;12.65;;;;;;;;;;5085249;28;20418;-60
2022/04/06 04:05:51;;;;;;;33.15;12.13;;;;;;;;;;5083446;28;20031;-61
2022/04/06 04:08:17;;;;;;;25.35;11.80;;;;;;;;;;5088082;28;20051;-61
2022/04/06 04:10:43;;;;;;;35.88;11.95;;;;;;;;;;5087804;28;20459;-60
2022/04/06 04:13:11;;;;;;;26.80;10.73;;;;;;;;;;5081012;28;20036;-61
2022/04/06 04:15:37;;;;;;;31.55;12.15;;;;;;;;;;5084768;28;20115;-61
2022/04/06 04:18:03;;;;;;;30.77;9.85;;;;;;;;;;5090870;28;20071;-60
2022/04/06 04:20:29;;;;;;;29.58;10.82;;;;;;;;;;5088527;28;20032;-61
2022/04/06 04:22:54;;;;;;;24.85;9.88;;;;;;;;;;5080033;28;20032;-61
2022/04/06 04:25:21;;;;;;;26.70;10.45;;;;;;;;;;5091559;28;20039;-60
2022/04/06 04:27:47;;;;;;;27.48;9.80;;;;;;;;;;5083334;28;20559;-61
2022/04/06 04:30:13;;;;;;;31.02;10.23;;;;;;;;;;5086702;28;20067;-61
2022/04/06 04:32:39;;;;;;;29.50;10.27;;;;;;;;;;5088552;28;20537;-61
2022/04/06 04:35:06;;;;;;;22.15;9.00;;;;;;;;;;5085519;28;20176;-61
2022/04/06 04:37:32;;;;;;;21.40;9.20;;;;;;;;;;5089402;28;20081;-60
2022/04/06 04:39:58;;;;;;;24.55;8.45;;;;;;;;;;5080368;28;20094;-61
2022/04/06 04:42:24;;;;;;;21.77;9.23;;;;;;;;;;5082616;28;20070;-60
2022/04/06 04:44:50;;;;;;;25.23;9.15;;;;;;;;;;5087003;28;20051;-60
2022/04/06 04:47:16;;;;;;;27.85;10.50;;;;;;;;;;5088355;28;20036;-60
2022/04/06 04:49:43;;;;;;;19.58;8.43;;;;;;;;;;5069333;28;20040;-60
2022/04/06 04:52:09;;;;;;;23.05;9.18;;;;;;;;;;5089856;28;20040;-60
2022/04/06 04:54:36;;;;;;;18.63;8.25;;;;;;;;;;5088388;28;20040;-60
2022/04/06 04:57:02;;;;;;;22.05;8.65;;;;;;;;;;5085108;28;20082;-60
2022/04/06 04:59:28;;;;;;;15.18;7.50;;;;;;;;;;5088166;28;20032;-60
2022/04/06 05:01:54;;;;;;;20.60;8.75;;;;;;;;;;5091202;28;20034;-60
2022/04/06 05:04:20;;;;;;;22.90;8.80;;;;;;;;;;5084000;28;20032;-60
2022/04/06 05:06:46;;;;;;;22.13;9.40;;;;;;;;;;5082757;28;20036;-60
2022/04/06 05:09:12;;;;;;;20.83;8.23;;;;;;;;;;5083129;28;20032;-60
2022/04/06 05:11:38;;;;;;;23.52;8.50;;;;;;;;;;5081600;28;20453;-60
2022/04/06 05:14:04;;;;;;;20.75;8.73;;;;;;;;;;5084275;28;20036;-60
2022/04/06 05:16:31;;;;;;;22.05;7.35;;;;;;;;;;5084516;28;20047;-60
2022/04/06 05:18:58;;;;;;;18.10;7.85;;;;;;;;;;5081604;28;20037;-60
2022/04/06 05:21:24;;;;;;;19.70;8.07;;;;;;;;;;5084924;28;20069;-60
2022/04/06 05:23:50;;;;;;;22.08;8.32;;;;;;;;;;5086859;28;20036;-60
2022/04/06 05:26:16;;;;;;;19.55;8.05;;;;;;;;;;5084963;28;20066;-59
2022/04/06 05:28:42;;;;;;;20.80;7.45;;;;;;;;;;5080081;28;20052;-60
2022/04/06 05:31:08;;;;;;;20.15;7.28;;;;;;;;;;5081263;28;20048;-60
2022/04/06 05:33:34;;;;;;;19.27;7.90;;;;;;;;;;5078349;28;20040;-60
2022/04/06 05:36:00;;;;;;;17.52;7.03;;;;;;;;;;5086139;28;20414;-60
2022/04/06 05:38:26;;;;;;;21.30;6.50;;;;;;;;;;5065154;28;20044;-60
2022/04/06 05:40:52;;;;;;;21.30;6.72;;;;;;;;;;5082153;28;20048;-60
2022/04/06 05:43:18;;;;;;;19.35;6.93;;;;;;;;;;5081588;28;20051;-59
2022/04/06 05:45:44;;;;;;;17.88;6.25;;;;;;;;;;5088037;28;20032;-59
2022/04/06 05:48:11;;;;;;;17.55;6.25;;;;;;;;;;5086768;28;20044;-60
2022/04/06 05:50:38;;;;;;;15.05;5.95;;;;;;;;;;5083589;28;20094;-59
2022/04/06 05:53:04;;;;;;;13.98;5.22;;;;;;;;;;5086338;28;20114;-59
2022/04/06 05:55:30;;;;;;;14.35;5.30;;;;;;;;;;5075349;28;20032;-60
2022/04/06 05:57:56;;;;;;;13.45;5.07;;;;;;;;;;5079158;28;20115;-59
2022/04/06 06:00:22;;;;;;;16.08;5.60;;;;;;;;;;5082034;28;20075;-60
2022/04/06 06:02:49;;;;;;;16.13;5.45;;;;;;;;;;5085201;28;20032;-59
2022/04/06 06:05:15;;;;;;;14.80;5.00;;;;;;;;;;5086087;28;20040;-61
2022/04/06 06:07:41;;;;;;;13.63;3.95;;;;;;;;;;5087042;28;20502;-60
2022/04/06 06:10:08;;;;;;;12.77;4.93;;;;;;;;;;5084573;28;20094;-60
2022/04/06 06:12:34;;;;;;;12.07;5.30;;;;;;;;;;5082062;28;20036;-60
2022/04/06 06:15:01;;;;;;;12.45;4.25;;;;;;;;;;5085489;28;20074;-60
2022/04/06 06:17:27;;;;;;;9.35;4.45;;;;;;;;;;5081138;28;20043;-61
2022/04/06 06:19:53;;;;;;;9.80;4.10;;;;;;;;;;5083166;28;20131;-61
2022/04/06 06:22:19;;;;;;;15.88;4.30;;;;;;;;;;5086975;28;20118;-60
2022/04/06 06:24:45;;;;;;;10.20;3.95;;;;;;;;;;5080360;28;20029;-61
2022/04/06 06:27:14;;;;;;;14.43;3.80;;;;;;;;;;5083353;28;20047;-60
2022/04/06 06:29:40;;;;;;;10.73;3.92;;;;;;;;;;5084612;28;20044;-60
2022/04/06 06:32:06;;;;;;;10.55;3.30;;;;;;;;;;5077907;28;20082;-60
2022/04/06 06:34:33;;;;;;;10.90;3.58;;;;;;;;;;5087305;28;20036;-60
2022/04/06 06:36:59;;;;;;;11.35;3.65;;;;;;;;;;5081430;28;20082;-60
2022/04/06 06:39:24;;;;;;;11.43;3.72;;;;;;;;;;5076441;28;20094;-60
2022/04/06 06:41:52;;;;;;;7.15;2.70;;;;;;;;;;5087033;28;20032;-60
2022/04/06 06:44:18;;;;;;;9.75;2.90;;;;;;;;;;5086050;28;20114;-60
2022/04/06 06:46:44;;;;;;;8.82;2.90;;;;;;;;;;5077418;28;20111;-60
2022/04/06 06:49:10;;;;;;;9.65;3.13;;;;;;;;;;5077826;28;20174;-60
2022/04/06 06:51:36;;;;;;;12.48;3.15;;;;;;;;;;5082700;28;20037;-60
2022/04/06 06:54:02;;;;;;;11.35;3.10;;;;;;;;;;5084614;28;20024;-60
2022/04/06 06:56:28;;;;;;;9.95;3.00;;;;;;;;;;5082122;28;20520;-60
2022/04/06 06:58:54;;;;;;;6.32;2.50;;;;;;;;;;5084866;28;20114;-60
2022/04/06 07:01:20;;;;;;;8.45;3.00;;;;;;;;;;5081734;28;20586;-60
2022/04/06 07:03:46;;;;;;;10.02;2.88;;;;;;;;;;5078696;28;20175;-60
2022/04/06 07:06:12;;;;;;;9.48;3.65;;;;;;;;;;5082388;28;20125;-60
2022/04/06 07:08:38;;;;;;;10.88;2.53;;;;;;;;;;5076992;28;20082;-60
2022/04/06 07:11:04;;;;;;;9.65;3.30;;;;;;;;;;5081643;28;20056;-60
2022/04/06 07:13:30;;;;;;;9.65;3.22;;;;;;;;;;5078614;28;20050;-60
2022/04/06 07:15:56;;;;;;;12.68;3.40;;;;;;;;;;5079285;28;20035;-60
2022/04/06 07:18:23;;;;;;;8.25;3.35;;;;;;;;;;5087781;28;20633;-60
2022/04/06 07:20:49;;;;;;;9.38;2.95;;;;;;;;;;5084922;28;20044;-60
2022/04/06 07:23:15;;;;;;;12.55;3.20;;;;;;;;;;5077615;28;20036;-60
2022/04/06 07:25:41;;;;;;;13.38;3.28;;;;;;;;;;5080276;28;20054;-60
2022/04/06 07:28:07;;;;;;;11.98;3.80;;;;;;;;;;5080530;28;20409;-60
2022/04/06 07:30:34;;;;;;;13.75;3.40;;;;;;;;;;5084272;28;20405;-60
2022/04/06 07:33:00;;;;;;;10.93;3.95;;;;;;;;;;5083319;28;20424;-60
2022/04/06 07:35:27;;;;;;;7.68;3.40;;;;;;;;;;5076927;28;20043;-60
2022/04/06 07:37:53;;;;;;;12.80;3.38;;;;;;;;;;5076249;28;20042;-60
2022/04/06 07:40:22;;;;;;;11.23;4.03;;;;;;;;;;5085558;28;20405;-60
2022/04/06 07:42:49;;;;;;;10.48;3.88;;;;;;;;;;5086714;28;20591;-60
2022/04/06 07:45:17;;;;;;;15.48;4.28;;;;;;;;;;5085882;28;20058;-60
2022/04/06 07:47:43;;;;;;;10.40;4.45;;;;;;;;;;5081092;28;20052;-60
2022/04/06 07:50:09;;;;;;;10.85;4.07;;;;;;;;;;5083089;28;20032;-60
2022/04/06 07:52:36;;;;;;;12.20;4.97;;;;;;;;;;5082281;28;20040;-60
2022/04/06 07:55:04;;;;;;;10.32;4.93;;;;;;;;;;5081370;28;20040;-60
2022/04/06 07:57:30;;;;;;;9.95;4.88;;;;;;;;;;5078400;28;20089;-60
2022/04/06 07:59:56;;;;;;;14.98;5.20;;;;;;;;;;5079763;28;20506;-60
2022/04/06 08:02:23;;;;;;;12.25;5.20;;;;;;;;;;5077634;28;20040;-60
2022/04/06 08:04:50;;;;;;;15.02;5.63;;;;;;;;;;5087619;28;20044;-60
2022/04/06 08:07:16;;;;;;;11.23;5.30;;;;;;;;;;5078790;28;20044;-60
2022/04/06 08:09:42;;;;;;;15.38;6.05;;;;;;;;;;5082035;28;20079;-60
2022/04/06 08:12:08;;;;;;;15.15;6.03;;;;;;;;;;5081234;28;20035;-61
2022/04/06 08:14:34;;;;;;;14.82;6.40;;;;;;;;;;5084927;28;20493;-59
2022/04/06 08:17:00;;;;;;;15.88;6.20;;;;;;;;;;5079811;28;20036;-59
2022/04/06 08:22:56;;;;;;;16.27;6.45;;;;;;;;;;5074434;28;20073;-60
2022/04/06 08:25:28;;;;;;;13.90;7.32;;;;;;;;;;5084922;28;20127;-60
2022/04/06 08:27:57;;;;;;;16.27;7.43;;;;;;;;;;5083573;28;20043;-60
2022/04/06 08:30:23;;;;;;;15.70;6.90;;;;;;;;;;5089631;28;20048;-60
2022/04/06 08:32:49;;;;;;;13.70;7.22;;;;;;;;;;5084228;28;20520;-59
2022/04/06 08:35:17;;;;;;;17.90;8.48;;;;;;;;;;5087345;28;20099;-59
2022/04/06 08:37:43;;;;;;;14.52;8.00;;;;;;;;;;5084073;28;20044;-60
2022/04/06 08:40:10;;;;;;;18.92;7.38;;;;;;;;;;5078280;28;20121;-59
2022/04/06 08:42:37;;;;;;;14.20;7.30;;;;;;;;;;5081534;28;20042;-59
2022/04/06 08:45:06;;;;;;;16.92;7.72;;;;;;;;;;5078444;28;20037;-60
2022/04/06 08:47:33;;;;;;;13.15;6.53;;;;;;;;;;5085107;28;20477;-59
2022/04/06 08:49:59;;;;;;;17.73;8.68;;;;;;;;;;5084319;28;20048;-60
2022/04/06 08:52:25;;;;;;;21.15;8.65;;;;;;;;;;5086012;28;20056;-59
2022/04/06 08:54:51;;;;;;;16.45;7.75;;;;;;;;;;5090509;28;20115;-60
2022/04/06 08:57:18;;;;;;;19.33;8.48;;;;;;;;;;5088961;28;20050;-59
2022/04/06 08:59:46;;;;;;;17.80;7.57;;;;;;;;;;5085866;28;20047;-60
2022/04/06 09:02:17;;;;;;;18.17;7.07;;;;;;;;;;5086895;28;20047;-60
2022/04/06 09:04:43;;;;;;;13.50;7.53;;;;;;;;;;5069350;28;20409;-59
2022/04/06 09:07:10;;;;;;;12.45;6.47;;;;;;;;;;5086491;28;20036;-59
2022/04/06 09:09:37;;;;;;;14.48;7.32;;;;;;;;;;5083748;28;20054;-59
2022/04/06 09:12:09;;;;;;;11.27;6.45;;;;;;;;;;5086632;28;20097;-59
2022/04/06 09:14:36;;;;;;;13.48;6.03;;;;;;;;;;5087639;28;20051;-60
2022/04/06 09:17:05;;;;;;;16.60;6.30;;;;;;;;;;5087425;28;20089;-59
2022/04/06 09:19:32;;;;;;;9.68;4.88;;;;;;;;;;5084695;28;20033;-59
2022/04/06 09:21:58;;;;;;;11.93;5.90;;;;;;;;;;5082327;28;20239;-59
2022/04/06 09:24:26;;;;;;;12.98;5.50;;;;;;;;;;5082801;28;20036;-60
2022/04/06 09:27:03;;;;;;;14.57;5.90;;;;;;;;;;5080871;28;20123;-60
2022/04/06 09:29:30;;;;;;;12.75;5.25;;;;;;;;;;5083334;28;20028;-61
2022/04/06 09:32:05;;;;;;;9.52;4.85;;;;;;;;;;5083421;28;20037;-61
2022/04/06 09:34:33;;;;;;;12.80;4.68;;;;;;;;;;5084472;28;20454;-60
2022/04/06 09:36:59;;;;;;;11.70;5.53;;;;;;;;;;5081220;28;20481;-60
2022/04/06 09:39:43;;;;;;;7.80;4.63;;;;;;;;;;5074720;28;20503;-61
2022/04/06 09:42:10;;;;;;;10.52;3.95;;;;;;;;;;5088116;28;20509;-60
2022/04/06 09:47:40;;;;;;;10.20;3.92;;;;;;;;;;5084977;28;20036;-60
2022/04/06 09:50:27;;;;;;;9.02;3.53;;;;;;;;;;5077591;28;20238;-60
2022/04/06 09:52:56;;;;;;;7.63;4.07;;;;;;;;;;5084180;28;20040;-60
2022/04/06 09:55:23;;;;;;;8.32;3.78;;;;;;;;;;5086580;28;20047;-61
2022/04/06 09:57:55;;;;;;;9.52;4.28;;;;;;;;;;5083651;28;20040;-60
2022/04/06 10:00:23;;;;;;;7.68;4.50;;;;;;;;;;5087118;28;20047;-60
2022/04/06 10:03:10;;;;;;;11.10;5.05;;;;;;;;;;5082112;28;20114;-60
2022/04/06 10:05:37;;;;;;;8.95;5.10;;;;;;;;;;5079267;28;20040;-60
2022/04/06 10:08:04;;;;;;;11.95;5.30;;;;;;;;;;5081987;28;20604;-60
2022/04/06 10:10:31;;;;;;;8.85;4.93;;;;;;;;;;5089551;28;20040;-58
2022/04/06 10:12:58;;;;;;;10.25;4.90;;;;;;;;;;5071288;28;20130;-60
2022/04/06 10:15:25;;;;;;;8.32;5.15;;;;;;;;;;5083252;28;20040;-60
2022/04/06 10:17:51;;;;;;;14.85;5.68;;;;;;;;;;5083233;28;20085;-60
2022/04/06 10:20:38;;;;;;;8.85;5.20;;;;;;;;;;5084175;28;20032;-60
2022/04/06 10:23:17;;;;;;;8.75;4.95;;;;;;;;;;5080226;28;20409;-60
2022/04/06 10:25:52;;;;;;;11.27;5.45;;;;;;;;;;5083954;28;20036;-59
2022/04/06 10:28:19;;;;;;;10.07;5.22;;;;;;;;;;5081280;28;20405;-60
2022/04/06 10:31:04;;;;;;;16.65;6.05;;;;;;;;;;5066647;28;20536;-60
2022/04/06 10:33:32;;;;;;;8.95;5.20;;;;;;;;;;5081355;28;20031;-61
2022/04/06 10:36:16;;;;;;;11.48;5.43;;;;;;;;;;5079730;28;20098;-61
2022/04/06 10:39:02;;;;;;;11.23;5.05;;;;;;;;;;5088323;28;20520;-60
2022/04/06 10:41:29;;;;;;;13.00;6.05;;;;;;;;;;5084168;28;20047;-60
2022/04/06 10:43:56;;;;;;;10.57;5.30;;;;;;;;;;5081600;28;20044;-61
2022/04/06 10:46:38;;;;;;;12.68;5.72;;;;;;;;;;5082905;28;20041;-60
2022/04/06 10:49:07;;;;;;;10.45;5.68;;;;;;;;;;5083058;28;20040;-60
2022/04/06 10:51:37;;;;;;;14.43;6.30;;;;;;;;;;5080997;28;20573;-60
2022/04/06 10:54:13;;;;;;;12.93;5.78;;;;;;;;;;5074190;28;20043;-60
2022/04/06 10:57:00;;;;;;;9.95;5.85;;;;;;;;;;5081801;28;20455;-60
2022/04/06 10:59:29;;;;;;;11.55;6.32;;;;;;;;;;5084851;28;20501;-60
2022/04/06 11:02:14;;;;;;;13.90;6.72;;;;;;;;;;5089861;28;20040;-60
2022/04/06 11:04:40;;;;;;;9.52;6.00;;;;;;;;;;5082571;28;20112;-60
2022/04/06 11:07:08;;;;;;;12.00;6.93;;;;;;;;;;5083227;28;20028;-60
2022/04/06 11:12:29;;;;;;;10.40;5.45;;;;;;;;;;5082992;28;20036;-60
2022/04/06 11:15:01;;;;;;;12.48;7.22;;;;;;;;;;5059827;28;20045;-60
2022/04/06 11:17:48;;;;;;;16.50;7.75;;;;;;;;;;5078925;28;20089;-60
2022/04/06 11:20:14;;;;;;;10.40;6.60;;;;;;;;;;5085782;28;20048;-60
2022/04/06 11:22:43;;;;;;;10.80;6.03;;;;;;;;;;5077424;28;20031;-60
2022/04/06 11:25:16;;;;;;;13.10;7.20;;;;;;;;;;5086860;28;20105;-61
2022/04/06 11:27:43;;;;;;;17.15;7.97;;;;;;;;;;5077719;28;20101;-60
2022/04/06 11:30:12;;;;;;;14.88;7.53;;;;;;;;;;5070166;28;20098;-60
2022/04/06 11:32:39;;;;;;;16.30;7.28;;;;;;;;;;5069866;28;20533;-60
2022/04/06 11:35:09;;;;;;;11.15;7.40;;;;;;;;;;5079016;28;20085;-59
2022/04/06 11:37:46;;;;;;;11.95;5.57;;;;;;;;;;5080564;28;20180;-59
2022/04/06 11:40:13;;;;;;;17.70;7.70;;;;;;;;;;5083064;28;20040;-60
2022/04/06 11:42:39;;;;;;;15.15;8.07;;;;;;;;;;5083164;28;20069;-60
2022/04/06 11:45:05;;;;;;;18.30;8.00;;;;;;;;;;5084507;28;20032;-60
2022/04/06 11:47:35;;;;;;;20.65;8.18;;;;;;;;;;5082909;28;20036;-60
2022/04/06 11:50:03;;;;;;;11.65;6.68;;;;;;;;;;5082894;28;20528;-61
2022/04/06 11:52:29;;;;;;;14.95;7.90;;;;;;;;;;5073534;28;20085;-61
2022/04/06 11:54:57;;;;;;;13.75;7.25;;;;;;;;;;5085100;28;20115;-60
2022/04/06 11:57:34;;;;;;;12.75;7.35;;;;;;;;;;5084227;28;20040;-61
2022/04/06 12:00:00;;;;;;;13.02;6.63;;;;;;;;;;5083597;28;20041;-60
2022/04/06 12:02:26;;;;;;;11.77;6.97;;;;;;;;;;5080143;28;20063;-61
2022/04/06 12:05:02;;;;;;;11.52;7.13;;;;;;;;;;5087161;28;20174;-60
2022/04/06 12:07:28;;;;;;;11.63;7.72;;;;;;;;;;5083842;28;20040;-60
2022/04/06 12:09:54;;;;;;;12.93;6.80;;;;;;;;;;5091598;28;20036;-60
2022/04/06 12:12:22;;;;;;;10.75;6.65;;;;;;;;;;5084589;28;20044;-61
2022/04/06 12:14:48;;;;;;;12.90;6.63;;;;;;;;;;5086802;28;20044;-60
2022/04/06 12:17:14;;;;;;;12.68;6.38;;;;;;;;;;5086376;28;20028;-61
2022/04/06 12:19:40;;;;;;;13.50;6.70;;;;;;;;;;5081944;28;20482;-61
2022/04/06 12:22:16;;;;;;;14.68;7.47;;;;;;;;;;5083286;28;20036;-61
2022/04/06 12:24:43;;;;;;;13.50;5.80;;;;;;;;;;5085955;28;20058;-61
2022/04/06 12:27:10;;;;;;;15.63;8.20;;;;;;;;;;5081934;28;20044;-61
2022/04/06 12:29:36;;;;;;;10.38;7.13;;;;;;;;;;5067657;28;20040;-61
2022/04/06 12:32:05;;;;;;;15.90;7.78;;;;;;;;;;5087744;28;20028;-61
2022/04/06 12:34:35;;;;;;;13.50;7.75;;;;;;;;;;5084757;28;20040;-61
2022/04/06 12:37:29;;;;;;;11.30;7.30;;;;;;;;;;5069063;28;20039;-61
2022/04/06 12:39:54;;;;;;;12.68;7.07;;;;;;;;;;5084976;28;20045;-61
2022/04/06 12:42:21;;;;;;;13.43;8.25;;;;;;;;;;5088881;28;20036;-61
2022/04/06 12:45:02;;;;;;;11.52;6.65;;;;;;;;;;5079523;28;20039;-61
2022/04/06 12:47:28;;;;;;;9.15;6.68;;;;;;;;;;5077689;28;20042;-61
2022/04/06 12:50:15;;;;;;;13.13;8.35;;;;;;;;;;5090459;28;20127;-61
2022/04/06 12:52:41;;;;;;;12.32;8.00;;;;;;;;;;5082372;28;20482;-61
2022/04/06 12:55:13;;;;;;;10.82;6.68;;;;;;;;;;5088519;28;20036;-62
2022/04/06 12:57:39;;;;;;;15.20;7.20;;;;;;;;;;5084887;28;20111;-61
2022/04/06 13:00:13;;;;;;;10.68;7.32;;;;;;;;;;5087570;28;20049;-60
2022/04/06 13:02:51;;;;;;;11.02;6.95;;;;;;;;;;5084343;28;20060;-60
2022/04/06 13:05:18;;;;;;;14.70;7.95;;;;;;;;;;5088805;28;20042;-61
2022/04/06 13:07:45;;;;;;;15.93;8.02;;;;;;;;;;5084031;28;20040;-60
2022/04/06 13:10:16;;;;;;;13.30;7.88;;;;;;;;;;5080427;28;20063;-60
2022/04/06 13:12:45;;;;;;;11.98;7.78;;;;;;;;;;5088939;28;20085;-60
2022/04/06 13:15:15;;;;;;;13.40;6.60;;;;;;;;;;5087003;28;20036;-61
2022/04/06 13:17:43;;;;;;;11.53;7.67;;;;;;;;;;5083645;28;20135;-60
2022/04/06 13:20:10;;;;;;;10.70;6.95;;;;;;;;;;5084901;28;20040;-60
2022/04/06 13:22:37;;;;;;;10.02;5.97;;;;;;;;;;5081902;28;20392;-60
2022/04/06 13:25:04;;;;;;;16.65;7.97;;;;;;;;;;5080748;28;20520;-60
2022/04/06 13:27:30;;;;;;;12.80;6.95;;;;;;;;;;5084593;28;20032;-60
2022/04/06 13:29:56;;;;;;;13.55;7.45;;;;;;;;;;5085348;28;20044;-60
2022/04/06 13:32:22;;;;;;;12.32;7.75;;;;;;;;;;5084133;28;20104;-60
2022/04/06 13:34:48;;;;;;;14.55;7.47;;;;;;;;;;5077659;28;20127;-60
2022/04/06 13:37:18;;;;;;;11.48;7.07;;;;;;;;;;5086202;28;21655;-61
2022/04/06 13:39:44;;;;;;;10.63;7.70;;;;;;;;;;5084516;28;20627;-60
2022/04/06 13:42:11;;;;;;;12.40;6.90;;;;;;;;;;5082191;28;20083;-61
2022/04/06 13:44:37;;;;;;;10.77;7.22;;;;;;;;;;5079900;28;20090;-61
2022/04/06 13:47:04;;;;;;;12.65;7.95;;;;;;;;;;5084017;28;20374;-61
2022/04/06 13:49:30;;;;;;;13.15;8.05;;;;;;;;;;5085782;28;20040;-61
2022/04/06 13:51:56;;;;;;;12.20;7.55;;;;;;;;;;5082937;28;20054;-61
2022/04/06 13:54:23;;;;;;;10.93;7.13;;;;;;;;;;5086513;28;20040;-61
2022/04/06 13:56:49;;;;;;;10.85;6.55;;;;;;;;;;5079463;28;20050;-61
2022/04/06 13:59:15;;;;;;;9.82;6.90;;;;;;;;;;5084535;28;20072;-61
2022/04/06 14:01:42;;;;;;;11.07;7.70;;;;;;;;;;5085179;28;20032;-61
2022/04/06 14:04:08;;;;;;;10.85;6.72;;;;;;;;;;5086038;28;20574;-61
2022/04/06 14:06:34;;;;;;;11.32;7.25;;;;;;;;;;5086736;28;20040;-61
2022/04/06 14:09:00;;;;;;;12.43;8.07;;;;;;;;;;5088587;28;20032;-61
2022/04/06 14:11:28;;;;;;;10.88;6.78;;;;;;;;;;5081038;28;20119;-60
2022/04/06 14:13:54;;;;;;;11.57;7.55;;;;;;;;;;5090205;28;20048;-61
2022/04/06 14:16:20;;;;;;;12.35;7.90;;;;;;;;;;5080963;28;20040;-61
2022/04/06 14:18:46;;;;;;;13.30;8.00;;;;;;;;;;5084805;28;20130;-61
2022/04/06 14:21:12;;;;;;;13.68;8.35;;;;;;;;;;5086091;28;20044;-62
2022/04/06 14:23:40;;;;;;;10.90;7.72;;;;;;;;;;5084212;28;20036;-61
2022/04/06 14:26:06;;;;;;;14.90;8.50;;;;;;;;;;5081773;28;20064;-61
2022/04/06 14:28:33;;;;;;;12.13;7.00;;;;;;;;;;5086054;28;20036;-61
2022/04/06 14:30:59;;;;;;;10.55;6.68;;;;;;;;;;5083906;28;20044;-61
2022/04/06 14:33:25;;;;;;;8.27;6.80;;;;;;;;;;5086048;28;20360;-62
2022/04/06 14:35:51;;;;;;;11.23;8.05;;;;;;;;;;5064925;28;20036;-61
2022/04/06 14:38:18;;;;;;;11.85;7.53;;;;;;;;;;5087716;28;20039;-61
2022/04/06 14:40:47;;;;;;;12.13;8.50;;;;;;;;;;5086341;28;20551;-61
2022/04/06 14:43:18;;;;;;;15.23;8.43;;;;;;;;;;5086935;28;20051;-61
2022/04/06 14:45:44;;;;;;;12.55;8.48;;;;;;;;;;5087637;28;20123;-61